Loon Lake, Indiana
Current Conditions -  °F | °C
As of 6:54 PM on Saturday 22 Nov 2014 (Local Time) from KFWA Reporting Station
Overcast Overcast  
Wind Chill: 50°   Ceiling: 3600
Heat Index: 50°   Visibility: 10mi
Dew Point: 42°   Wind: 13mph
Humidity: 74%   Direction: 190°S
Pressure: 29.98"   Gusts: NA
Location:  41.1479°N, 85.4772°W
Report Text: KFWA 222354Z 19011KT 10SM OVC036 10/06 A2998 RMK AO2 SLP158 60003 T01000056 10100 20078 56005
Loading
Personal Weather Stations






























Interactive Weather Map New forecast layout! Learn more

10-Day Weather Forecast

Advertisements
Track Severe Weather on mobile